PWSweather.com
Personal Weather Stations
Station Observations
CW3999
Hillsboro, OR 97123

Hillsboro, OR 97123

Lat: 45.4667, Lon: -122.951

Elevation: 155

Station Type: Davis Vantage Pro2

High Low Average
Temperature 91.8°F33.2°C 57.6°F14.2°C 74.3°F23.5°C
Dew Point 62.4°F16.9°C 52.7°F11.5°C 56.5°F13.6°C
Winds 9.2 mph 14.8 kmh Calm Calm 1.0 mph WSW1.6 kmh WSW
Wind Gusts 12.1 mph19.5 kmh -- 2.0 mph3.2 kmh
Humidity 85% 33% 57%
Pressure 30.10 in1019.3 mb 29.96 in1014.6 mb -
Precipitation 0.00 in0.0 mm - -
Hour Temp Dew Point Humidity Winds Wind Gusts Pressure Precip Precip Rate Daily Precip Total
12:02 AM 74.8°F23.8°C 53.8°F12.1°C 48% 0.9 mph NW1.4 kmh NW -- 29.95 in1014.2 mb - 0.00 in0.0 mm 0.00 in0.0 mm
12:07 AM 74.7°F23.7°C 54.3°F12.4°C 49% Calm Calm -- 29.95 in1014.2 mb - 0.00 in0.0 mm 0.00 in0.0 mm
12:12 AM 74.5°F23.6°C 54.1°F12.3°C 49% Calm Calm -- 29.95 in1014.2 mb - 0.00 in0.0 mm 0.00 in0.0 mm
12:17 AM 74.1°F23.4°C 53.8°F12.1°C 49% Calm Calm -- 29.95 in1014.2 mb - 0.00 in0.0 mm 0.00 in0.0 mm
12:22 AM 73.9°F23.3°C 53.6°F12.0°C 49% Calm Calm -- 29.96 in1014.6 mb - 0.00 in0.0 mm 0.00 in0.0 mm
12:27 AM 73.8°F23.2°C 54.0°F12.2°C 50% Calm Calm -- 29.96 in1014.6 mb - 0.00 in0.0 mm 0.00 in0.0 mm
12:32 AM 73.6°F23.1°C 53.8°F12.1°C 50% Calm Calm -- 29.96 in1014.6 mb - 0.00 in0.0 mm 0.00 in0.0 mm
12:37 AM 73.0°F22.8°C 53.8°F12.1°C 51% Calm Calm -- 29.96 in1014.6 mb - 0.00 in0.0 mm 0.00 in0.0 mm
12:42 AM 72.5°F22.5°C 53.4°F11.9°C 51% Calm Calm -- 29.96 in1014.6 mb - 0.00 in0.0 mm 0.00 in0.0 mm
12:47 AM 72.3°F22.4°C 53.8°F12.1°C 52% Calm Calm -- 29.96 in1014.6 mb - 0.00 in0.0 mm 0.00 in0.0 mm
12:52 AM 72.0°F22.2°C 54.0°F12.2°C 53% Calm Calm -- 29.96 in1014.6 mb - 0.00 in0.0 mm 0.00 in0.0 mm
12:57 AM 71.8°F22.1°C 53.8°F12.1°C 53% Calm Calm -- 29.96 in1014.6 mb - 0.00 in0.0 mm 0.00 in0.0 mm
01:02 AM 71.8°F22.1°C 53.8°F12.1°C 53% Calm Calm -- 29.96 in1014.6 mb - 0.00 in0.0 mm 0.00 in0.0 mm
01:07 AM 71.2°F21.8°C 54.3°F12.4°C 55% Calm Calm -- 29.96 in1014.6 mb - 0.00 in0.0 mm 0.00 in0.0 mm
01:12 AM 70.7°F21.5°C 54.7°F12.6°C 57% Calm Calm -- 29.96 in1014.6 mb - 0.00 in0.0 mm 0.00 in0.0 mm
01:17 AM 70.2°F21.2°C 54.7°F12.6°C 58% Calm Calm -- 29.96 in1014.6 mb - 0.00 in0.0 mm 0.00 in0.0 mm
01:22 AM 69.8°F21.0°C 54.3°F12.4°C 58% Calm Calm -- 29.96 in1014.6 mb - 0.00 in0.0 mm 0.00 in0.0 mm
01:27 AM 69.3°F20.7°C 54.3°F12.4°C 59% Calm Calm -- 29.96 in1014.6 mb - 0.00 in0.0 mm 0.00 in0.0 mm
01:32 AM 69.1°F20.6°C 54.7°F12.6°C 60% Calm Calm -- 29.96 in1014.6 mb - 0.00 in0.0 mm 0.00 in0.0 mm
01:37 AM 68.7°F20.4°C 54.7°F12.6°C 61% Calm Calm -- 29.96 in1014.6 mb - 0.00 in0.0 mm 0.00 in0.0 mm
01:42 AM 68.4°F20.2°C 54.9°F12.7°C 62% Calm Calm -- 29.96 in1014.6 mb - 0.00 in0.0 mm 0.00 in0.0 mm
01:47 AM 68.0°F20.0°C 54.9°F12.7°C 63% Calm Calm -- 29.96 in1014.6 mb - 0.00 in0.0 mm 0.00 in0.0 mm
01:52 AM 67.6°F19.8°C 54.7°F12.6°C 63% Calm Calm -- 29.96 in1014.6 mb - 0.00 in0.0 mm 0.00 in0.0 mm
01:57 AM 67.3°F19.6°C 54.3°F12.4°C 63% Calm Calm -- 29.96 in1014.6 mb - 0.00 in0.0 mm 0.00 in0.0 mm
02:02 AM 66.9°F19.4°C 53.4°F11.9°C 62% Calm Calm -- 29.96 in1014.6 mb - 0.00 in0.0 mm 0.00 in0.0 mm
02:07 AM 66.6°F19.2°C 53.1°F11.7°C 62% Calm Calm -- 29.96 in1014.6 mb - 0.00 in0.0 mm 0.00 in0.0 mm
02:12 AM 66.6°F19.2°C 53.6°F12.0°C 63% Calm Calm -- 29.96 in1014.6 mb - 0.00 in0.0 mm 0.00 in0.0 mm
02:17 AM 66.4°F19.1°C 53.8°F12.1°C 64% Calm Calm -- 29.96 in1014.6 mb - 0.00 in0.0 mm 0.00 in0.0 mm
02:22 AM 66.4°F19.1°C 53.8°F12.1°C 64% Calm Calm -- 29.96 in1014.6 mb - 0.00 in0.0 mm 0.00 in0.0 mm
02:27 AM 66.0°F18.9°C 53.4°F11.9°C 64% Calm Calm -- 29.96 in1014.6 mb - 0.00 in0.0 mm 0.00 in0.0 mm
02:32 AM 65.8°F18.8°C 53.2°F11.8°C 64% Calm Calm -- 29.96 in1014.6 mb - 0.00 in0.0 mm 0.00 in0.0 mm
02:37 AM 65.8°F18.8°C 53.2°F11.8°C 64% Calm Calm -- 29.96 in1014.6 mb - 0.00 in0.0 mm 0.00 in0.0 mm
02:42 AM 65.8°F18.8°C 52.9°F11.6°C 63% Calm Calm -- 29.97 in1014.9 mb - 0.00 in0.0 mm 0.00 in0.0 mm
02:47 AM 65.8°F18.8°C 53.2°F11.8°C 64% Calm Calm -- 29.97 in1014.9 mb - 0.00 in0.0 mm 0.00 in0.0 mm
02:52 AM 65.8°F18.8°C 54.5°F12.5°C 67% Calm Calm -- 29.97 in1014.9 mb - 0.00 in0.0 mm 0.00 in0.0 mm
02:57 AM 65.8°F18.8°C 55.0°F12.8°C 68% Calm Calm -- 29.97 in1014.9 mb - 0.00 in0.0 mm 0.00 in0.0 mm
03:02 AM 65.5°F18.6°C 55.0°F12.8°C 69% Calm Calm -- 29.97 in1014.9 mb - 0.00 in0.0 mm 0.00 in0.0 mm
03:07 AM 64.9°F18.3°C 55.4°F13.0°C 71% Calm Calm -- 29.97 in1014.9 mb - 0.00 in0.0 mm 0.00 in0.0 mm
03:12 AM 64.6°F18.1°C 55.4°F13.0°C 72% Calm Calm -- 29.97 in1014.9 mb - 0.00 in0.0 mm 0.00 in0.0 mm
03:17 AM 64.0°F17.8°C 55.6°F13.1°C 74% Calm Calm -- 29.97 in1014.9 mb - 0.00 in0.0 mm 0.00 in0.0 mm
03:22 AM 63.7°F17.6°C 55.2°F12.9°C 74% Calm Calm -- 29.97 in1014.9 mb - 0.00 in0.0 mm 0.00 in0.0 mm
03:27 AM 63.5°F17.5°C 55.4°F13.0°C 75% Calm Calm -- 29.97 in1014.9 mb - 0.00 in0.0 mm 0.00 in0.0 mm
03:32 AM 63.1°F17.3°C 54.7°F12.6°C 74% Calm Calm -- 29.97 in1014.9 mb - 0.00 in0.0 mm 0.00 in0.0 mm
03:37 AM 63.0°F17.2°C 54.9°F12.7°C 75% Calm Calm -- 29.97 in1014.9 mb - 0.00 in0.0 mm 0.00 in0.0 mm
03:42 AM 62.8°F17.1°C 55.0°F12.8°C 76% Calm Calm -- 29.98 in1015.2 mb - 0.00 in0.0 mm 0.00 in0.0 mm
03:47 AM 62.6°F17.0°C 54.9°F12.7°C 76% Calm Calm -- 29.98 in1015.2 mb - 0.00 in0.0 mm 0.00 in0.0 mm
03:52 AM 62.4°F16.9°C 54.7°F12.6°C 76% Calm Calm -- 29.98 in1015.2 mb - 0.00 in0.0 mm 0.00 in0.0 mm
03:57 AM 62.2°F16.8°C 54.9°F12.7°C 77% Calm Calm -- 29.98 in1015.2 mb - 0.00 in0.0 mm 0.00 in0.0 mm
04:02 AM 62.1°F16.7°C 54.7°F12.6°C 77% Calm Calm -- 29.98 in1015.2 mb - 0.00 in0.0 mm 0.00 in0.0 mm
04:07 AM 61.9°F16.6°C 54.7°F12.6°C 77% Calm Calm -- 29.98 in1015.2 mb - 0.00 in0.0 mm 0.00 in0.0 mm
04:12 AM 61.5°F16.4°C 54.3°F12.4°C 77% Calm Calm -- 29.98 in1015.2 mb - 0.00 in0.0 mm 0.00 in0.0 mm
04:17 AM 61.3°F16.3°C 54.1°F12.3°C 77% Calm Calm -- 29.98 in1015.2 mb - 0.00 in0.0 mm 0.00 in0.0 mm
04:22 AM 61.2°F16.2°C 54.0°F12.2°C 77% Calm Calm -- 29.98 in1015.2 mb - 0.00 in0.0 mm 0.00 in0.0 mm
04:27 AM 61.0°F16.1°C 54.1°F12.3°C 78% Calm Calm -- 29.99 in1015.6 mb - 0.00 in0.0 mm 0.00 in0.0 mm
04:32 AM 60.8°F16.0°C 54.0°F12.2°C 78% Calm Calm -- 29.99 in1015.6 mb - 0.00 in0.0 mm 0.00 in0.0 mm
04:37 AM 60.4°F15.8°C 54.0°F12.2°C 79% Calm Calm -- 29.99 in1015.6 mb - 0.00 in0.0 mm 0.00 in0.0 mm
04:42 AM 60.3°F15.7°C 53.8°F12.1°C 79% Calm Calm -- 29.99 in1015.6 mb - 0.00 in0.0 mm 0.00 in0.0 mm
04:47 AM 59.9°F15.5°C 54.1°F12.3°C 81% Calm Calm -- 29.99 in1015.6 mb - 0.00 in0.0 mm 0.00 in0.0 mm
04:52 AM 59.7°F15.4°C 54.0°F12.2°C 81% Calm Calm -- 29.99 in1015.6 mb - 0.00 in0.0 mm 0.00 in0.0 mm
04:57 AM 59.5°F15.3°C 53.4°F11.9°C 80% Calm Calm -- 29.99 in1015.6 mb - 0.00 in0.0 mm 0.00 in0.0 mm
05:02 AM 59.4°F15.2°C 53.6°F12.0°C 81% Calm Calm -- 29.99 in1015.6 mb - 0.00 in0.0 mm 0.00 in0.0 mm
05:07 AM 59.2°F15.1°C 53.4°F11.9°C 81% Calm Calm -- 29.99 in1015.6 mb - 0.00 in0.0 mm 0.00 in0.0 mm
05:12 AM 59.0°F15.0°C 53.6°F12.0°C 82% Calm Calm -- 29.99 in1015.6 mb - 0.00 in0.0 mm 0.00 in0.0 mm
05:17 AM 58.8°F14.9°C 53.4°F11.9°C 82% Calm Calm -- 30.00 in1015.9 mb - 0.00 in0.0 mm 0.00 in0.0 mm
05:22 AM 58.6°F14.8°C 53.2°F11.8°C 82% Calm Calm -- 30.00 in1015.9 mb - 0.00 in0.0 mm 0.00 in0.0 mm
05:27 AM 58.5°F14.7°C 53.1°F11.7°C 82% Calm Calm -- 30.00 in1015.9 mb - 0.00 in0.0 mm 0.00 in0.0 mm
05:32 AM 58.5°F14.7°C 53.1°F11.7°C 82% Calm Calm -- 30.00 in1015.9 mb - 0.00 in0.0 mm 0.00 in0.0 mm
05:37 AM 58.3°F14.6°C 53.1°F11.7°C 83% Calm Calm -- 30.00 in1015.9 mb - 0.00 in0.0 mm 0.00 in0.0 mm
05:42 AM 58.1°F14.5°C 52.9°F11.6°C 83% Calm Calm -- 30.00 in1015.9 mb - 0.00 in0.0 mm 0.00 in0.0 mm
05:47 AM 58.1°F14.5°C 52.9°F11.6°C 83% Calm Calm -- 30.01 in1016.3 mb - 0.00 in0.0 mm 0.00 in0.0 mm
05:52 AM 57.9°F14.4°C 52.7°F11.5°C 83% Calm Calm -- 30.01 in1016.3 mb - 0.00 in0.0 mm 0.00 in0.0 mm
05:57 AM 57.7°F14.3°C 52.7°F11.5°C 83% Calm Calm -- 30.01 in1016.3 mb - 0.00 in0.0 mm 0.00 in0.0 mm
06:02 AM 57.7°F14.3°C 52.7°F11.5°C 83% Calm Calm -- 30.01 in1016.3 mb - 0.00 in0.0 mm 0.00 in0.0 mm
06:07 AM 57.7°F14.3°C 52.9°F11.6°C 84% Calm Calm -- 30.01 in1016.3 mb - 0.00 in0.0 mm 0.00 in0.0 mm
06:12 AM 57.6°F14.2°C 52.7°F11.5°C 84% Calm Calm -- 30.01 in1016.3 mb - 0.00 in0.0 mm 0.00 in0.0 mm
06:17 AM 57.6°F14.2°C 52.7°F11.5°C 84% Calm Calm -- 30.01 in1016.3 mb - 0.00 in0.0 mm 0.00 in0.0 mm
06:22 AM 57.6°F14.2°C 52.7°F11.5°C 84% Calm Calm -- 30.01 in1016.3 mb - 0.00 in0.0 mm 0.00 in0.0 mm
06:27 AM 57.7°F14.3°C 52.9°F11.6°C 84% Calm Calm -- 30.01 in1016.3 mb - 0.00 in0.0 mm 0.00 in0.0 mm
06:32 AM 57.7°F14.3°C 52.9°F11.6°C 84% Calm Calm -- 30.01 in1016.3 mb - 0.00 in0.0 mm 0.00 in0.0 mm
06:37 AM 57.9°F14.4°C 53.1°F11.7°C 84% Calm Calm -- 30.01 in1016.3 mb - 0.00 in0.0 mm 0.00 in0.0 mm
06:42 AM 58.1°F14.5°C 53.2°F11.8°C 84% Calm Calm -- 30.02 in1016.6 mb - 0.00 in0.0 mm 0.00 in0.0 mm
06:47 AM 58.5°F14.7°C 53.6°F12.0°C 84% Calm Calm -- 30.02 in1016.6 mb - 0.00 in0.0 mm 0.00 in0.0 mm
06:52 AM 58.8°F14.9°C 54.3°F12.4°C 85% Calm Calm -- 30.02 in1016.6 mb - 0.00 in0.0 mm 0.00 in0.0 mm
06:57 AM 59.4°F15.2°C 54.5°F12.5°C 84% Calm Calm -- 30.02 in1016.6 mb - 0.00 in0.0 mm 0.00 in0.0 mm
07:02 AM 59.7°F15.4°C 54.9°F12.7°C 84% Calm Calm -- 30.03 in1016.9 mb - 0.00 in0.0 mm 0.00 in0.0 mm
07:07 AM 60.1°F15.6°C 55.2°F12.9°C 84% Calm Calm -- 30.03 in1016.9 mb - 0.00 in0.0 mm 0.00 in0.0 mm
07:12 AM 60.4°F15.8°C 55.6°F13.1°C 84% Calm Calm -- 30.03 in1016.9 mb - 0.00 in0.0 mm 0.00 in0.0 mm
07:17 AM 60.8°F16.0°C 55.6°F13.1°C 83% Calm Calm -- 30.03 in1016.9 mb - 0.00 in0.0 mm 0.00 in0.0 mm
07:22 AM 61.2°F16.2°C 55.9°F13.3°C 83% Calm Calm -- 30.03 in1016.9 mb - 0.00 in0.0 mm 0.00 in0.0 mm
07:27 AM 61.9°F16.6°C 56.3°F13.5°C 82% Calm Calm -- 30.03 in1016.9 mb - 0.00 in0.0 mm 0.00 in0.0 mm
07:32 AM 62.4°F16.9°C 56.5°F13.6°C 81% Calm Calm -- 30.03 in1016.9 mb - 0.00 in0.0 mm 0.00 in0.0 mm
07:37 AM 63.1°F17.3°C 56.5°F13.6°C 79% Calm Calm -- 30.04 in1017.3 mb - 0.00 in0.0 mm 0.00 in0.0 mm
07:42 AM 64.0°F17.8°C 56.3°F13.5°C 76% Calm Calm -- 30.04 in1017.3 mb - 0.00 in0.0 mm 0.00 in0.0 mm
07:47 AM 64.8°F18.2°C 56.7°F13.7°C 75% Calm Calm -- 30.04 in1017.3 mb - 0.00 in0.0 mm 0.00 in0.0 mm
07:52 AM 65.5°F18.6°C 56.7°F13.7°C 73% Calm Calm -- 30.04 in1017.3 mb - 0.00 in0.0 mm 0.00 in0.0 mm
07:57 AM 66.0°F18.9°C 56.7°F13.7°C 72% Calm Calm -- 30.04 in1017.3 mb - 0.00 in0.0 mm 0.00 in0.0 mm
08:02 AM 66.4°F19.1°C 56.3°F13.5°C 70% Calm Calm -- 30.04 in1017.3 mb - 0.00 in0.0 mm 0.00 in0.0 mm
08:07 AM 66.6°F19.2°C 56.1°F13.4°C 69% Calm Calm -- 30.04 in1017.3 mb - 0.00 in0.0 mm 0.00 in0.0 mm
08:12 AM 66.9°F19.4°C 56.5°F13.6°C 69% Calm Calm -- 30.04 in1017.3 mb - 0.00 in0.0 mm 0.00 in0.0 mm
08:17 AM 67.5°F19.7°C 56.5°F13.6°C 68% Calm Calm -- 30.04 in1017.3 mb - 0.00 in0.0 mm 0.00 in0.0 mm
08:22 AM 67.8°F19.9°C 56.8°F13.8°C 68% Calm Calm -- 30.04 in1017.3 mb - 0.00 in0.0 mm 0.00 in0.0 mm
08:27 AM 68.4°F20.2°C 57.0°F13.9°C 67% Calm Calm -- 30.04 in1017.3 mb - 0.00 in0.0 mm 0.00 in0.0 mm
08:32 AM 68.5°F20.3°C 56.7°F13.7°C 66% Calm Calm -- 30.05 in1017.6 mb - 0.00 in0.0 mm 0.00 in0.0 mm
08:37 AM 68.9°F20.5°C 57.6°F14.2°C 67% Calm Calm -- 30.05 in1017.6 mb - 0.00 in0.0 mm 0.00 in0.0 mm
08:42 AM 69.4°F20.8°C 57.6°F14.2°C 66% Calm Calm -- 30.05 in1017.6 mb - 0.00 in0.0 mm 0.00 in0.0 mm
08:47 AM 70.2°F21.2°C 57.9°F14.4°C 65% Calm Calm -- 30.05 in1017.6 mb - 0.00 in0.0 mm 0.00 in0.0 mm
08:52 AM 70.3°F21.3°C 57.6°F14.2°C 64% 0.2 mph NW0.3 kmh NW -- 30.05 in1017.6 mb - 0.00 in0.0 mm 0.00 in0.0 mm
08:57 AM 70.9°F21.6°C 57.7°F14.3°C 63% 0.4 mph NW0.6 kmh NW -- 30.04 in1017.3 mb - 0.00 in0.0 mm 0.00 in0.0 mm
09:02 AM 70.9°F21.6°C 57.7°F14.3°C 63% 0.7 mph NW1.1 kmh NW 4.9 mph7.9 kmh 30.05 in1017.6 mb - 0.00 in0.0 mm 0.00 in0.0 mm
09:07 AM 71.1°F21.7°C 57.4°F14.1°C 62% 1.1 mph NW1.8 kmh NW 4.0 mph6.4 kmh 30.04 in1017.3 mb - 0.00 in0.0 mm 0.00 in0.0 mm
09:12 AM 70.9°F21.6°C 56.8°F13.8°C 61% 1.8 mph NW2.9 kmh NW -- 30.04 in1017.3 mb - 0.00 in0.0 mm 0.00 in0.0 mm
09:17 AM 70.9°F21.6°C 56.8°F13.8°C 61% 1.8 mph NW2.9 kmh NW 2.0 mph3.2 kmh 30.04 in1017.3 mb - 0.00 in0.0 mm 0.00 in0.0 mm
09:22 AM 70.9°F21.6°C 56.8°F13.8°C 61% 1.8 mph NW2.9 kmh NW 2.0 mph3.2 kmh 30.04 in1017.3 mb - 0.00 in0.0 mm 0.00 in0.0 mm
09:27 AM 71.2°F21.8°C 56.7°F13.7°C 60% 1.8 mph NW2.9 kmh NW -- 30.04 in1017.3 mb - 0.00 in0.0 mm 0.00 in0.0 mm
09:32 AM 71.1°F21.7°C 56.5°F13.6°C 60% 0.9 mph NW1.4 kmh NW 2.0 mph3.2 kmh 30.04 in1017.3 mb - 0.00 in0.0 mm 0.00 in0.0 mm
09:37 AM 71.6°F22.0°C 56.1°F13.4°C 58% 0.4 mph NW0.6 kmh NW 2.0 mph3.2 kmh 30.04 in1017.3 mb - 0.00 in0.0 mm 0.00 in0.0 mm
09:42 AM 72.1°F22.3°C 56.1°F13.4°C 57% 0.9 mph NW1.4 kmh NW -- 30.04 in1017.3 mb - 0.00 in0.0 mm 0.00 in0.0 mm
09:47 AM 72.1°F22.3°C 56.1°F13.4°C 57% 1.3 mph NW2.1 kmh NW -- 30.04 in1017.3 mb - 0.00 in0.0 mm 0.00 in0.0 mm
09:52 AM 72.3°F22.4°C 56.3°F13.5°C 57% 0.7 mph NW1.1 kmh NW 2.9 mph4.7 kmh 30.04 in1017.3 mb - 0.00 in0.0 mm 0.00 in0.0 mm
09:57 AM 72.5°F22.5°C 55.9°F13.3°C 56% 0.4 mph NW0.6 kmh NW 0.9 mph1.4 kmh 30.04 in1017.3 mb - 0.00 in0.0 mm 0.00 in0.0 mm
10:02 AM 73.0°F22.8°C 56.5°F13.6°C 56% 0.9 mph NW1.4 kmh NW 2.9 mph4.7 kmh 30.04 in1017.3 mb - 0.00 in0.0 mm 0.00 in0.0 mm
10:07 AM 73.2°F22.9°C 56.1°F13.4°C 55% 0.9 mph NW1.4 kmh NW -- 30.04 in1017.3 mb - 0.00 in0.0 mm 0.00 in0.0 mm
10:12 AM 73.2°F22.9°C 56.1°F13.4°C 55% 0.7 mph NW1.1 kmh NW -- 30.04 in1017.3 mb - 0.00 in0.0 mm 0.00 in0.0 mm
10:17 AM 73.6°F23.1°C 56.8°F13.8°C 56% 0.2 mph NW0.3 kmh NW -- 30.04 in1017.3 mb - 0.00 in0.0 mm 0.00 in0.0 mm
10:22 AM 74.8°F23.8°C 57.0°F13.9°C 54% 0.2 mph NW0.3 kmh NW -- 30.04 in1017.3 mb - 0.00 in0.0 mm 0.00 in0.0 mm
10:27 AM 74.8°F23.8°C 56.1°F13.4°C 52% 0.7 mph NW1.1 kmh NW -- 30.04 in1017.3 mb - 0.00 in0.0 mm 0.00 in0.0 mm
10:32 AM 74.5°F23.6°C 55.8°F13.2°C 52% 0.7 mph NW1.1 kmh NW -- 30.04 in1017.3 mb - 0.00 in0.0 mm 0.00 in0.0 mm
10:37 AM 74.8°F23.8°C 55.6°F13.1°C 51% 0.2 mph NW0.3 kmh NW 2.0 mph3.2 kmh 30.04 in1017.3 mb - 0.00 in0.0 mm 0.00 in0.0 mm
10:42 AM 75.6°F24.2°C 56.7°F13.7°C 52% 0.4 mph NW0.6 kmh NW 2.0 mph3.2 kmh 30.04 in1017.3 mb - 0.00 in0.0 mm 0.00 in0.0 mm
10:47 AM 77.0°F25.0°C 56.3°F13.5°C 49% 0.7 mph NW1.1 kmh NW 2.0 mph3.2 kmh 30.04 in1017.3 mb - 0.00 in0.0 mm 0.00 in0.0 mm
10:52 AM 76.8°F24.9°C 54.5°F12.5°C 46% 0.9 mph NW1.4 kmh NW 2.9 mph4.7 kmh 30.04 in1017.3 mb - 0.00 in0.0 mm 0.00 in0.0 mm
10:57 AM 76.8°F24.9°C 54.5°F12.5°C 46% 1.1 mph NW1.8 kmh NW 2.9 mph4.7 kmh 30.04 in1017.3 mb - 0.00 in0.0 mm 0.00 in0.0 mm
11:02 AM 76.6°F24.8°C 53.8°F12.1°C 45% 1.3 mph NW2.1 kmh NW -- 30.04 in1017.3 mb - 0.00 in0.0 mm 0.00 in0.0 mm
11:07 AM 77.2°F25.1°C 55.4°F13.0°C 47% 1.6 mph NW2.6 kmh NW 2.9 mph4.7 kmh 30.04 in1017.3 mb - 0.00 in0.0 mm 0.00 in0.0 mm
11:12 AM 77.0°F25.0°C 54.7°F12.6°C 46% 1.1 mph NW1.8 kmh NW -- 30.04 in1017.3 mb - 0.00 in0.0 mm 0.00 in0.0 mm
11:17 AM 76.8°F24.9°C 53.2°F11.8°C 44% 0.4 mph NW0.6 kmh NW -- 30.03 in1016.9 mb - 0.00 in0.0 mm 0.00 in0.0 mm
11:22 AM 77.7°F25.4°C 54.7°F12.6°C 45% Calm Calm -- 30.03 in1016.9 mb - 0.00 in0.0 mm 0.00 in0.0 mm
11:27 AM 77.7°F25.4°C 54.1°F12.3°C 44% Calm Calm -- 30.03 in1016.9 mb - 0.00 in0.0 mm 0.00 in0.0 mm
11:32 AM 78.4°F25.8°C 56.5°F13.6°C 47% Calm Calm -- 30.03 in1016.9 mb - 0.00 in0.0 mm 0.00 in0.0 mm
11:37 AM 79.5°F26.4°C 55.0°F12.8°C 43% 0.7 mph NW1.1 kmh NW -- 30.03 in1016.9 mb - 0.00 in0.0 mm 0.00 in0.0 mm
11:42 AM 79.5°F26.4°C 54.5°F12.5°C 42% 1.3 mph NW2.1 kmh NW 0.9 mph1.4 kmh 30.03 in1016.9 mb - 0.00 in0.0 mm 0.00 in0.0 mm
11:47 AM 78.8°F26.0°C 54.5°F12.5°C 43% 0.7 mph NW1.1 kmh NW -- 30.03 in1016.9 mb - 0.00 in0.0 mm 0.00 in0.0 mm
11:52 AM 79.2°F26.2°C 54.7°F12.6°C 43% 0.4 mph NW0.6 kmh NW -- 30.03 in1016.9 mb - 0.00 in0.0 mm 0.00 in0.0 mm
11:57 AM 79.3°F26.3°C 55.6°F13.1°C 44% 0.9 mph NW1.4 kmh NW -- 30.03 in1016.9 mb - 0.00 in0.0 mm 0.00 in0.0 mm
12:02 PM 79.7°F26.5°C 55.2°F12.9°C 43% 0.9 mph NW1.4 kmh NW -- 30.03 in1016.9 mb - 0.00 in0.0 mm 0.00 in0.0 mm
12:07 PM 80.1°F26.7°C 55.6°F13.1°C 43% 0.2 mph NW0.3 kmh NW -- 30.03 in1016.9 mb - 0.00 in0.0 mm 0.00 in0.0 mm
12:12 PM 80.4°F26.9°C 55.2°F12.9°C 42% Calm Calm -- 30.02 in1016.6 mb - 0.00 in0.0 mm 0.00 in0.0 mm
12:17 PM 81.0°F27.2°C 57.0°F13.9°C 44% Calm Calm -- 30.02 in1016.6 mb - 0.00 in0.0 mm 0.00 in0.0 mm
12:22 PM 81.7°F27.6°C 55.8°F13.2°C 41% 1.3 mph NW2.1 kmh NW -- 30.02 in1016.6 mb - 0.00 in0.0 mm 0.00 in0.0 mm
12:27 PM 81.0°F27.2°C 55.8°F13.2°C 42% 1.3 mph NW2.1 kmh NW 2.0 mph3.2 kmh 30.02 in1016.6 mb - 0.00 in0.0 mm 0.00 in0.0 mm
12:32 PM 81.1°F27.3°C 55.2°F12.9°C 41% 1.8 mph NE2.9 kmh NE 4.0 mph6.4 kmh 30.02 in1016.6 mb - 0.00 in0.0 mm 0.00 in0.0 mm
12:37 PM 80.8°F27.1°C 54.9°F12.7°C 41% 2.0 mph NE3.2 kmh NE -- 30.02 in1016.6 mb - 0.00 in0.0 mm 0.00 in0.0 mm
12:42 PM 82.8°F28.2°C 55.9°F13.3°C 40% 0.2 mph NE0.3 kmh NE -- 30.02 in1016.6 mb - 0.00 in0.0 mm 0.00 in0.0 mm
12:47 PM 82.2°F27.9°C 54.9°F12.7°C 39% Calm Calm -- 30.02 in1016.6 mb - 0.00 in0.0 mm 0.00 in0.0 mm
12:52 PM 83.5°F28.6°C 56.7°F13.7°C 40% Calm Calm -- 30.02 in1016.6 mb - 0.00 in0.0 mm 0.00 in0.0 mm
12:57 PM 84.6°F29.2°C 57.6°F14.2°C 40% Calm Calm -- 30.02 in1016.6 mb - 0.00 in0.0 mm 0.00 in0.0 mm
01:02 PM 84.7°F29.3°C 57.0°F13.9°C 39% Calm Calm -- 30.02 in1016.6 mb - 0.00 in0.0 mm 0.00 in0.0 mm
01:07 PM 84.7°F29.3°C 55.6°F13.1°C 37% 0.2 mph NE0.3 kmh NE -- 30.02 in1016.6 mb - 0.00 in0.0 mm 0.00 in0.0 mm
01:12 PM 84.7°F29.3°C 56.3°F13.5°C 38% 0.4 mph NE0.6 kmh NE 2.0 mph3.2 kmh 30.01 in1016.3 mb - 0.00 in0.0 mm 0.00 in0.0 mm
01:17 PM 85.3°F29.6°C 56.8°F13.8°C 38% 0.4 mph NE0.6 kmh NE 2.9 mph4.7 kmh 30.01 in1016.3 mb - 0.00 in0.0 mm 0.00 in0.0 mm
01:22 PM 85.1°F29.5°C 58.1°F14.5°C 40% 0.7 mph NE1.1 kmh NE 0.9 mph1.4 kmh 30.01 in1016.3 mb - 0.00 in0.0 mm 0.00 in0.0 mm
01:27 PM 85.6°F29.8°C 57.9°F14.4°C 39% 0.7 mph NE1.1 kmh NE -- 30.01 in1016.3 mb - 0.00 in0.0 mm 0.00 in0.0 mm
01:32 PM 87.1°F30.6°C 56.8°F13.8°C 36% 0.9 mph NNW1.4 kmh NNW 4.9 mph7.9 kmh 30.01 in1016.3 mb - 0.00 in0.0 mm 0.00 in0.0 mm
01:37 PM 87.1°F30.6°C 57.6°F14.2°C 37% 1.8 mph NNW2.9 kmh NNW 2.0 mph3.2 kmh 30.01 in1016.3 mb - 0.00 in0.0 mm 0.00 in0.0 mm
01:42 PM 86.4°F30.2°C 57.0°F13.9°C 37% 1.6 mph NNW2.6 kmh NNW -- 30.01 in1016.3 mb - 0.00 in0.0 mm 0.00 in0.0 mm
01:47 PM 86.9°F30.5°C 56.7°F13.7°C 36% 0.9 mph N1.4 kmh N 2.0 mph3.2 kmh 30.01 in1016.3 mb - 0.00 in0.0 mm 0.00 in0.0 mm
01:52 PM 87.6°F30.9°C 58.1°F14.5°C 37% 0.4 mph N0.6 kmh N -- 30.01 in1016.3 mb - 0.00 in0.0 mm 0.00 in0.0 mm
01:57 PM 88.2°F31.2°C 59.4°F15.2°C 38% 0.2 mph N0.3 kmh N -- 30.01 in1016.3 mb - 0.00 in0.0 mm 0.00 in0.0 mm
02:02 PM 87.4°F30.8°C 58.6°F14.8°C 38% Calm Calm 2.9 mph4.7 kmh 30.01 in1016.3 mb - 0.00 in0.0 mm 0.00 in0.0 mm
02:07 PM 87.1°F30.6°C 57.6°F14.2°C 37% 0.9 mph N1.4 kmh N -- 30.01 in1016.3 mb - 0.00 in0.0 mm 0.00 in0.0 mm
02:12 PM 87.4°F30.8°C 58.6°F14.8°C 38% 1.3 mph N2.1 kmh N -- 30.00 in1015.9 mb - 0.00 in0.0 mm 0.00 in0.0 mm
02:17 PM 86.7°F30.4°C 58.8°F14.9°C 39% 0.7 mph N1.1 kmh N -- 30.00 in1015.9 mb - 0.00 in0.0 mm 0.00 in0.0 mm
02:22 PM 87.8°F31.0°C 59.7°F15.4°C 39% 0.7 mph NNE1.1 kmh NNE -- 30.00 in1015.9 mb - 0.00 in0.0 mm 0.00 in0.0 mm
02:27 PM 88.0°F31.1°C 59.9°F15.5°C 39% 0.9 mph E1.4 kmh E -- 30.00 in1015.9 mb - 0.00 in0.0 mm 0.00 in0.0 mm
02:32 PM 88.2°F31.2°C 59.4°F15.2°C 38% 0.2 mph E0.3 kmh E -- 30.00 in1015.9 mb - 0.00 in0.0 mm 0.00 in0.0 mm
02:37 PM 88.2°F31.2°C 59.4°F15.2°C 38% Calm Calm 2.0 mph3.2 kmh 30.00 in1015.9 mb - 0.00 in0.0 mm 0.00 in0.0 mm
02:42 PM 88.0°F31.1°C 59.9°F15.5°C 39% 0.4 mph E0.6 kmh E 2.9 mph4.7 kmh 30.00 in1015.9 mb - 0.00 in0.0 mm 0.00 in0.0 mm
02:47 PM 87.8°F31.0°C 58.3°F14.6°C 37% 0.9 mph E1.4 kmh E 2.0 mph3.2 kmh 29.99 in1015.6 mb - 0.00 in0.0 mm 0.00 in0.0 mm
02:52 PM 88.2°F31.2°C 59.4°F15.2°C 38% 0.9 mph E1.4 kmh E -- 29.99 in1015.6 mb - 0.00 in0.0 mm 0.00 in0.0 mm
02:57 PM 90.3°F32.4°C 62.1°F16.7°C 39% 0.7 mph E1.1 kmh E -- 29.99 in1015.6 mb - 0.00 in0.0 mm 0.00 in0.0 mm
03:02 PM 90.0°F32.2°C 59.4°F15.2°C 36% 2.0 mph NE3.2 kmh NE 4.0 mph6.4 kmh 29.99 in1015.6 mb - 0.00 in0.0 mm 0.00 in0.0 mm
03:07 PM 90.1°F32.3°C 58.8°F14.9°C 35% 2.7 mph NE4.3 kmh NE 2.9 mph4.7 kmh 29.99 in1015.6 mb - 0.00 in0.0 mm 0.00 in0.0 mm
03:12 PM 89.8°F32.1°C 59.2°F15.1°C 36% 1.8 mph NE2.9 kmh NE 2.0 mph3.2 kmh 29.99 in1015.6 mb - 0.00 in0.0 mm 0.00 in0.0 mm
03:17 PM 89.2°F31.8°C 58.8°F14.9°C 36% 1.6 mph NE2.6 kmh NE 2.0 mph3.2 kmh 29.99 in1015.6 mb - 0.00 in0.0 mm 0.00 in0.0 mm
03:22 PM 89.4°F31.9°C 59.0°F15.0°C 36% 1.6 mph NE2.6 kmh NE 4.9 mph7.9 kmh 29.99 in1015.6 mb - 0.00 in0.0 mm 0.00 in0.0 mm
03:27 PM 89.6°F32.0°C 58.3°F14.6°C 35% 2.0 mph NE3.2 kmh NE 2.0 mph3.2 kmh 29.99 in1015.6 mb - 0.00 in0.0 mm 0.00 in0.0 mm
03:32 PM 89.2°F31.8°C 57.2°F14.0°C 34% 1.8 mph NE2.9 kmh NE 2.9 mph4.7 kmh 29.99 in1015.6 mb - 0.00 in0.0 mm 0.00 in0.0 mm
03:37 PM 89.8°F32.1°C 58.5°F14.7°C 35% 1.1 mph NE1.8 kmh NE -- 29.98 in1015.2 mb - 0.00 in0.0 mm 0.00 in0.0 mm
03:42 PM 90.3°F32.4°C 59.0°F15.0°C 35% 0.7 mph NE1.1 kmh NE 0.9 mph1.4 kmh 29.98 in1015.2 mb - 0.00 in0.0 mm 0.00 in0.0 mm
03:47 PM 90.1°F32.3°C 57.2°F14.0°C 33% 0.9 mph NE1.4 kmh NE 2.9 mph4.7 kmh 29.98 in1015.2 mb - 0.00 in0.0 mm 0.00 in0.0 mm
03:52 PM 90.1°F32.3°C 57.2°F14.0°C 33% 2.2 mph NE3.5 kmh NE 2.9 mph4.7 kmh 29.98 in1015.2 mb - 0.00 in0.0 mm 0.00 in0.0 mm
03:57 PM 90.1°F32.3°C 57.2°F14.0°C 33% 2.9 mph NE4.7 kmh NE 2.9 mph4.7 kmh 29.98 in1015.2 mb - 0.00 in0.0 mm 0.00 in0.0 mm
04:02 PM 91.0°F32.8°C 57.9°F14.4°C 33% 2.0 mph NE3.2 kmh NE -- 29.98 in1015.2 mb - 0.00 in0.0 mm 0.00 in0.0 mm
04:07 PM 90.5°F32.5°C 57.4°F14.1°C 33% 1.6 mph N2.6 kmh N 4.9 mph7.9 kmh 29.97 in1014.9 mb - 0.00 in0.0 mm 0.00 in0.0 mm
04:12 PM 90.1°F32.3°C 57.2°F14.0°C 33% 2.9 mph NNE4.7 kmh NNE -- 29.97 in1014.9 mb - 0.00 in0.0 mm 0.00 in0.0 mm
04:17 PM 90.3°F32.4°C 58.1°F14.5°C 34% 2.0 mph NNE3.2 kmh NNE 0.9 mph1.4 kmh 29.97 in1014.9 mb - 0.00 in0.0 mm 0.00 in0.0 mm
04:22 PM 90.3°F32.4°C 58.1°F14.5°C 34% Calm Calm -- 29.97 in1014.9 mb - 0.00 in0.0 mm 0.00 in0.0 mm
04:27 PM 90.3°F32.4°C 58.1°F14.5°C 34% 0.4 mph NNE0.6 kmh NNE 2.9 mph4.7 kmh 29.97 in1014.9 mb - 0.00 in0.0 mm 0.00 in0.0 mm
04:32 PM 90.7°F32.6°C 59.2°F15.1°C 35% 2.0 mph NNE3.2 kmh NNE 4.9 mph7.9 kmh 29.97 in1014.9 mb - 0.00 in0.0 mm 0.00 in0.0 mm
04:37 PM 89.8°F32.1°C 58.5°F14.7°C 35% 2.5 mph NE4.0 kmh NE 0.9 mph1.4 kmh 29.97 in1014.9 mb - 0.00 in0.0 mm 0.00 in0.0 mm
04:42 PM 90.1°F32.3°C 58.8°F14.9°C 35% 0.9 mph NE1.4 kmh NE -- 29.97 in1014.9 mb - 0.00 in0.0 mm 0.00 in0.0 mm
04:47 PM 90.0°F32.2°C 57.7°F14.3°C 34% 0.2 mph NE0.3 kmh NE -- 29.96 in1014.6 mb - 0.00 in0.0 mm 0.00 in0.0 mm
04:52 PM 90.0°F32.2°C 58.6°F14.8°C 35% 0.2 mph NE0.3 kmh NE -- 29.96 in1014.6 mb - 0.00 in0.0 mm 0.00 in0.0 mm
04:57 PM 89.4°F31.9°C 59.0°F15.0°C 36% Calm Calm -- 29.96 in1014.6 mb - 0.00 in0.0 mm 0.00 in0.0 mm
05:02 PM 90.3°F32.4°C 59.0°F15.0°C 35% Calm Calm -- 29.96 in1014.6 mb - 0.00 in0.0 mm 0.00 in0.0 mm
05:07 PM 90.7°F32.6°C 59.2°F15.1°C 35% 0.9 mph NNE1.4 kmh NNE 4.9 mph7.9 kmh 29.96 in1014.6 mb - 0.00 in0.0 mm 0.00 in0.0 mm
05:12 PM 90.5°F32.5°C 58.3°F14.6°C 34% 1.6 mph NNE2.6 kmh NNE -- 29.96 in1014.6 mb - 0.00 in0.0 mm 0.00 in0.0 mm
05:17 PM 90.9°F32.7°C 59.4°F15.2°C 35% 0.9 mph NNE1.4 kmh NNE 2.9 mph4.7 kmh 29.96 in1014.6 mb - 0.00 in0.0 mm 0.00 in0.0 mm
05:22 PM 91.6°F33.1°C 60.1°F15.6°C 35% 0.9 mph N1.4 kmh N 4.0 mph6.4 kmh 29.96 in1014.6 mb - 0.00 in0.0 mm 0.00 in0.0 mm
05:27 PM 91.8°F33.2°C 59.4°F15.2°C 34% 1.8 mph 2.9 kmh 0.9 mph1.4 kmh 29.96 in1014.6 mb - 0.00 in0.0 mm 0.00 in0.0 mm
05:32 PM 90.9°F32.7°C 59.4°F15.2°C 35% 1.1 mph 1.8 kmh -- 29.96 in1014.6 mb - 0.00 in0.0 mm 0.00 in0.0 mm
05:37 PM 90.3°F32.4°C 59.0°F15.0°C 35% 0.7 mph 1.1 kmh 4.9 mph7.9 kmh 29.96 in1014.6 mb - 0.00 in0.0 mm 0.00 in0.0 mm
05:42 PM 90.9°F32.7°C 59.4°F15.2°C 35% 1.3 mph 2.1 kmh 4.0 mph6.4 kmh 29.96 in1014.6 mb - 0.00 in0.0 mm 0.00 in0.0 mm
05:47 PM 90.9°F32.7°C 57.7°F14.3°C 33% 1.8 mph N2.9 kmh N -- 29.96 in1014.6 mb - 0.00 in0.0 mm 0.00 in0.0 mm
05:52 PM 90.7°F32.6°C 59.2°F15.1°C 35% 1.1 mph N1.8 kmh N -- 29.96 in1014.6 mb - 0.00 in0.0 mm 0.00 in0.0 mm
05:57 PM 90.9°F32.7°C 59.4°F15.2°C 35% 0.2 mph N0.3 kmh N 2.0 mph3.2 kmh 29.96 in1014.6 mb - 0.00 in0.0 mm 0.00 in0.0 mm
06:02 PM 91.2°F32.9°C 62.1°F16.7°C 38% 1.6 mph NNE2.6 kmh NNE 8.1 mph13.0 kmh 29.96 in1014.6 mb - 0.00 in0.0 mm 0.00 in0.0 mm
06:07 PM 90.7°F32.6°C 62.2°F16.8°C 39% 3.8 mph N6.1 kmh N 8.1 mph13.0 kmh 29.96 in1014.6 mb - 0.00 in0.0 mm 0.00 in0.0 mm
06:12 PM 90.1°F32.3°C 61.9°F16.6°C 39% 5.4 mph N8.7 kmh N 4.9 mph7.9 kmh 29.96 in1014.6 mb - 0.00 in0.0 mm 0.00 in0.0 mm
06:17 PM 90.0°F32.2°C 62.4°F16.9°C 40% 4.9 mph N7.9 kmh N 6.9 mph11.1 kmh 29.96 in1014.6 mb - 0.00 in0.0 mm 0.00 in0.0 mm
06:22 PM 89.4°F31.9°C 61.9°F16.6°C 40% 4.9 mph NNE7.9 kmh NNE 8.9 mph14.3 kmh 29.96 in1014.6 mb - 0.00 in0.0 mm 0.00 in0.0 mm
06:27 PM 89.2°F31.8°C 62.4°F16.9°C 41% 5.1 mph NNW8.2 kmh NNW 6.0 mph9.7 kmh 29.96 in1014.6 mb - 0.00 in0.0 mm 0.00 in0.0 mm
06:32 PM 89.1°F31.7°C 60.8°F16.0°C 39% 5.1 mph NW8.2 kmh NW 4.9 mph7.9 kmh 29.96 in1014.6 mb - 0.00 in0.0 mm 0.00 in0.0 mm
06:37 PM 88.7°F31.5°C 58.3°F14.6°C 36% 6.0 mph WNW9.7 kmh WNW 11.0 mph17.7 kmh 29.96 in1014.6 mb - 0.00 in0.0 mm 0.00 in0.0 mm
06:42 PM 88.3°F31.3°C 58.8°F14.9°C 37% 6.7 mph NW10.8 kmh NW 4.9 mph7.9 kmh 29.96 in1014.6 mb - 0.00 in0.0 mm 0.00 in0.0 mm
06:47 PM 87.8°F31.0°C 58.3°F14.6°C 37% 7.2 mph NW11.6 kmh NW 11.0 mph17.7 kmh 29.96 in1014.6 mb - 0.00 in0.0 mm 0.00 in0.0 mm
06:52 PM 87.3°F30.7°C 58.6°F14.8°C 38% 8.1 mph NW13.0 kmh NW 4.0 mph6.4 kmh 29.96 in1014.6 mb - 0.00 in0.0 mm 0.00 in0.0 mm
06:57 PM 86.9°F30.5°C 58.3°F14.6°C 38% 7.6 mph WNW12.2 kmh WNW 8.1 mph13.0 kmh 29.97 in1014.9 mb - 0.00 in0.0 mm 0.00 in0.0 mm
07:02 PM 86.5°F30.3°C 58.6°F14.8°C 39% 5.6 mph NNW9.0 kmh NNW 4.9 mph7.9 kmh 29.97 in1014.9 mb - 0.00 in0.0 mm 0.00 in0.0 mm
07:07 PM 86.2°F30.1°C 58.3°F14.6°C 39% 6.0 mph NW9.7 kmh NW 10.1 mph16.3 kmh 29.97 in1014.9 mb - 0.00 in0.0 mm 0.00 in0.0 mm
07:12 PM 85.8°F29.9°C 57.9°F14.4°C 39% 6.7 mph NW10.8 kmh NW 6.0 mph9.7 kmh 29.97 in1014.9 mb - 0.00 in0.0 mm 0.00 in0.0 mm
07:17 PM 85.6°F29.8°C 58.5°F14.7°C 40% 5.6 mph WNW9.0 kmh WNW 4.0 mph6.4 kmh 29.97 in1014.9 mb - 0.00 in0.0 mm 0.00 in0.0 mm
07:22 PM 85.3°F29.6°C 58.3°F14.6°C 40% 5.4 mph NNW8.7 kmh NNW 4.9 mph7.9 kmh 29.97 in1014.9 mb - 0.00 in0.0 mm 0.00 in0.0 mm
07:27 PM 84.9°F29.4°C 58.6°F14.8°C 41% 4.9 mph NNW7.9 kmh NNW 4.9 mph7.9 kmh 29.98 in1015.2 mb - 0.00 in0.0 mm 0.00 in0.0 mm
07:32 PM 84.7°F29.3°C 58.5°F14.7°C 41% 4.7 mph N7.6 kmh N 4.9 mph7.9 kmh 29.98 in1015.2 mb - 0.00 in0.0 mm 0.00 in0.0 mm
07:37 PM 84.6°F29.2°C 58.3°F14.6°C 41% 5.1 mph NNW8.2 kmh NNW 6.0 mph9.7 kmh 29.98 in1015.2 mb - 0.00 in0.0 mm 0.00 in0.0 mm
07:42 PM 84.4°F29.1°C 58.8°F14.9°C 42% 4.9 mph NW7.9 kmh NW 6.0 mph9.7 kmh 29.98 in1015.2 mb - 0.00 in0.0 mm 0.00 in0.0 mm
07:47 PM 83.8°F28.8°C 58.3°F14.6°C 42% 5.1 mph NW8.2 kmh NW 6.0 mph9.7 kmh 29.98 in1015.2 mb - 0.00 in0.0 mm 0.00 in0.0 mm
07:52 PM 83.5°F28.6°C 58.6°F14.8°C 43% 4.9 mph NW7.9 kmh NW 2.9 mph4.7 kmh 29.98 in1015.2 mb - 0.00 in0.0 mm 0.00 in0.0 mm
07:57 PM 83.1°F28.4°C 57.6°F14.2°C 42% 3.8 mph NW6.1 kmh NW 6.9 mph11.1 kmh 29.99 in1015.6 mb - 0.00 in0.0 mm 0.00 in0.0 mm
08:02 PM 82.6°F28.1°C 57.2°F14.0°C 42% 4.3 mph NW6.9 kmh NW 4.9 mph7.9 kmh 29.99 in1015.6 mb - 0.00 in0.0 mm 0.00 in0.0 mm
08:07 PM 82.0°F27.8°C 57.4°F14.1°C 43% 4.7 mph NW7.6 kmh NW 4.9 mph7.9 kmh 29.99 in1015.6 mb - 0.00 in0.0 mm 0.00 in0.0 mm
08:12 PM 81.5°F27.5°C 57.6°F14.2°C 44% 4.5 mph NW7.2 kmh NW 10.1 mph16.3 kmh 29.99 in1015.6 mb - 0.00 in0.0 mm 0.00 in0.0 mm
08:17 PM 81.0°F27.2°C 57.0°F13.9°C 44% 4.7 mph NW7.6 kmh NW 4.0 mph6.4 kmh 29.99 in1015.6 mb - 0.00 in0.0 mm 0.00 in0.0 mm
08:22 PM 80.4°F26.9°C 56.5°F13.6°C 44% 3.8 mph NW6.1 kmh NW 4.9 mph7.9 kmh 30.00 in1015.9 mb - 0.00 in0.0 mm 0.00 in0.0 mm
08:27 PM 80.1°F26.7°C 56.8°F13.8°C 45% 3.6 mph NW5.8 kmh NW 4.9 mph7.9 kmh 30.00 in1015.9 mb - 0.00 in0.0 mm 0.00 in0.0 mm
08:32 PM 79.5°F26.4°C 56.8°F13.8°C 46% 3.1 mph NW5.0 kmh NW 2.9 mph4.7 kmh 30.00 in1015.9 mb - 0.00 in0.0 mm 0.00 in0.0 mm
08:37 PM 79.0°F26.1°C 57.0°F13.9°C 47% 3.1 mph NW5.0 kmh NW 2.9 mph4.7 kmh 30.00 in1015.9 mb - 0.00 in0.0 mm 0.00 in0.0 mm
08:42 PM 78.4°F25.8°C 57.2°F14.0°C 48% 4.0 mph NW6.4 kmh NW 4.9 mph7.9 kmh 30.00 in1015.9 mb - 0.00 in0.0 mm 0.00 in0.0 mm
08:47 PM 77.7°F25.4°C 57.6°F14.2°C 50% 5.1 mph NW8.2 kmh NW 4.0 mph6.4 kmh 30.00 in1015.9 mb - 0.00 in0.0 mm 0.00 in0.0 mm
08:52 PM 77.0°F25.0°C 58.1°F14.5°C 52% 6.9 mph NW11.1 kmh NW 12.1 mph19.5 kmh 30.01 in1016.3 mb - 0.00 in0.0 mm 0.00 in0.0 mm
08:57 PM 76.3°F24.6°C 58.5°F14.7°C 54% 9.2 mph NNW14.8 kmh NNW 10.1 mph16.3 kmh 30.01 in1016.3 mb - 0.00 in0.0 mm 0.00 in0.0 mm
09:02 PM 75.4°F24.1°C 58.6°F14.8°C 56% 8.9 mph NW14.3 kmh NW 11.0 mph17.7 kmh 30.01 in1016.3 mb - 0.00 in0.0 mm 0.00 in0.0 mm
09:07 PM 74.8°F23.8°C 58.6°F14.8°C 57% 7.2 mph NW11.6 kmh NW 2.0 mph3.2 kmh 30.01 in1016.3 mb - 0.00 in0.0 mm 0.00 in0.0 mm
09:12 PM 74.5°F23.6°C 58.8°F14.9°C 58% 4.5 mph NW7.2 kmh NW 0.9 mph1.4 kmh 30.01 in1016.3 mb - 0.00 in0.0 mm 0.00 in0.0 mm
09:17 PM 74.1°F23.4°C 58.8°F14.9°C 59% 1.6 mph NW2.6 kmh NW -- 30.01 in1016.3 mb - 0.00 in0.0 mm 0.00 in0.0 mm
09:22 PM 73.8°F23.2°C 58.5°F14.7°C 59% 1.1 mph NW1.8 kmh NW 2.9 mph4.7 kmh 30.02 in1016.6 mb - 0.00 in0.0 mm 0.00 in0.0 mm
09:27 PM 73.2°F22.9°C 58.5°F14.7°C 60% 3.4 mph NW5.5 kmh NW 6.0 mph9.7 kmh 30.02 in1016.6 mb - 0.00 in0.0 mm 0.00 in0.0 mm
09:32 PM 73.0°F22.8°C 58.3°F14.6°C 60% 4.0 mph NW6.4 kmh NW 2.9 mph4.7 kmh 30.02 in1016.6 mb - 0.00 in0.0 mm 0.00 in0.0 mm
09:37 PM 72.7°F22.6°C 58.5°F14.7°C 61% 3.6 mph NW5.8 kmh NW 2.0 mph3.2 kmh 30.03 in1016.9 mb - 0.00 in0.0 mm 0.00 in0.0 mm
09:42 PM 72.1°F22.3°C 57.9°F14.4°C 61% 4.9 mph NW7.9 kmh NW 6.0 mph9.7 kmh 30.03 in1016.9 mb - 0.00 in0.0 mm 0.00 in0.0 mm
09:47 PM 71.8°F22.1°C 58.1°F14.5°C 62% 5.6 mph NW9.0 kmh NW 6.0 mph9.7 kmh 30.03 in1016.9 mb - 0.00 in0.0 mm 0.00 in0.0 mm
09:52 PM 71.4°F21.9°C 58.1°F14.5°C 63% 3.8 mph NW6.1 kmh NW 6.0 mph9.7 kmh 30.04 in1017.3 mb - 0.00 in0.0 mm 0.00 in0.0 mm
09:57 PM 71.1°F21.7°C 57.7°F14.3°C 63% 2.7 mph NW4.3 kmh NW -- 30.04 in1017.3 mb - 0.00 in0.0 mm 0.00 in0.0 mm
10:02 PM 70.9°F21.6°C 57.7°F14.3°C 63% 1.6 mph NW2.6 kmh NW 2.0 mph3.2 kmh 30.04 in1017.3 mb - 0.00 in0.0 mm 0.00 in0.0 mm
10:07 PM 70.5°F21.4°C 57.7°F14.3°C 64% 1.3 mph NW2.1 kmh NW 0.9 mph1.4 kmh 30.04 in1017.3 mb - 0.00 in0.0 mm 0.00 in0.0 mm
10:12 PM 70.2°F21.2°C 57.4°F14.1°C 64% 2.0 mph NW3.2 kmh NW 0.9 mph1.4 kmh 30.05 in1017.6 mb - 0.00 in0.0 mm 0.00 in0.0 mm
10:17 PM 69.8°F21.0°C 57.6°F14.2°C 65% 0.7 mph NW1.1 kmh NW 0.9 mph1.4 kmh 30.05 in1017.6 mb - 0.00 in0.0 mm 0.00 in0.0 mm
10:22 PM 69.4°F20.8°C 57.2°F14.0°C 65% 0.9 mph NW1.4 kmh NW 2.0 mph3.2 kmh 30.05 in1017.6 mb - 0.00 in0.0 mm 0.00 in0.0 mm
10:27 PM 69.1°F20.6°C 57.2°F14.0°C 66% 2.0 mph NW3.2 kmh NW 2.9 mph4.7 kmh 30.05 in1017.6 mb - 0.00 in0.0 mm 0.00 in0.0 mm
10:32 PM 68.7°F20.4°C 56.8°F13.8°C 66% 2.9 mph NW4.7 kmh NW 4.9 mph7.9 kmh 30.05 in1017.6 mb - 0.00 in0.0 mm 0.00 in0.0 mm
10:37 PM 68.4°F20.2°C 57.0°F13.9°C 67% 2.9 mph NW4.7 kmh NW 8.9 mph14.3 kmh 30.06 in1017.9 mb - 0.00 in0.0 mm 0.00 in0.0 mm
10:42 PM 68.0°F20.0°C 57.0°F13.9°C 68% 2.9 mph NW4.7 kmh NW 8.9 mph14.3 kmh 30.06 in1017.9 mb - 0.00 in0.0 mm 0.00 in0.0 mm
10:47 PM 67.6°F19.8°C 56.7°F13.7°C 68% 4.3 mph NW6.9 kmh NW 0.9 mph1.4 kmh 30.06 in1017.9 mb - 0.00 in0.0 mm 0.00 in0.0 mm
10:52 PM 67.5°F19.7°C 57.0°F13.9°C 69% 2.5 mph NW4.0 kmh NW 0.9 mph1.4 kmh 30.06 in1017.9 mb - 0.00 in0.0 mm 0.00 in0.0 mm
10:57 PM 67.3°F19.6°C 56.8°F13.8°C 69% Calm Calm 4.9 mph7.9 kmh 30.06 in1017.9 mb - 0.00 in0.0 mm 0.00 in0.0 mm
11:02 PM 66.9°F19.4°C 56.5°F13.6°C 69% 0.4 mph NW0.6 kmh NW -- 30.06 in1017.9 mb - 0.00 in0.0 mm 0.00 in0.0 mm
11:07 PM 66.7°F19.3°C 56.7°F13.7°C 70% 0.9 mph NW1.4 kmh NW -- 30.07 in1018.3 mb - 0.00 in0.0 mm 0.00 in0.0 mm
11:12 PM 66.4°F19.1°C 56.3°F13.5°C 70% 0.7 mph NW1.1 kmh NW 0.9 mph1.4 kmh 30.07 in1018.3 mb - 0.00 in0.0 mm 0.00 in0.0 mm
11:17 PM 66.2°F19.0°C 56.1°F13.4°C 70% Calm Calm -- 30.07 in1018.3 mb - 0.00 in0.0 mm 0.00 in0.0 mm
11:22 PM 66.0°F18.9°C 56.3°F13.5°C 71% Calm Calm -- 30.07 in1018.3 mb - 0.00 in0.0 mm 0.00 in0.0 mm
11:27 PM 65.8°F18.8°C 56.1°F13.4°C 71% Calm Calm -- 30.07 in1018.3 mb - 0.00 in0.0 mm 0.00 in0.0 mm
11:32 PM 65.7°F18.7°C 55.9°F13.3°C 71% Calm Calm -- 30.07 in1018.3 mb - 0.00 in0.0 mm 0.00 in0.0 mm
11:37 PM 65.3°F18.5°C 56.1°F13.4°C 72% Calm Calm -- 30.08 in1018.6 mb - 0.00 in0.0 mm 0.00 in0.0 mm
11:42 PM 65.1°F18.4°C 55.9°F13.3°C 72% Calm Calm 0.9 mph1.4 kmh 30.08 in1018.6 mb - 0.00 in0.0 mm 0.00 in0.0 mm
11:47 PM 64.8°F18.2°C 55.9°F13.3°C 73% 0.2 mph NW0.3 kmh NW 0.9 mph1.4 kmh 30.08 in1018.6 mb - 0.00 in0.0 mm 0.00 in0.0 mm
11:52 PM 64.6°F18.1°C 55.8°F13.2°C 73% 1.3 mph NW2.1 kmh NW -- 30.08 in1018.6 mb - 0.00 in0.0 mm 0.00 in0.0 mm
11:57 PM 64.4°F18.0°C 55.6°F13.1°C 73% 1.8 mph NW2.9 kmh NW -- 30.08 in1018.6 mb - 0.00 in0.0 mm 0.00 in0.0 mm